createdAt,value
2023-02-18T00:01:43.650Z,102106.09
2023-02-18T00:04:10.703Z,102095.66
2023-02-18T00:06:38.959Z,102081.50
2023-02-18T00:09:07.946Z,102094.97
2023-02-18T00:11:37.377Z,102091.47
2023-02-18T00:14:07.941Z,102086.13
2023-02-18T00:16:38.741Z,102081.81
2023-02-18T00:19:11.284Z,102084.31
2023-02-18T00:21:38.659Z,102078.84
2023-02-18T00:24:06.912Z,102078.00
2023-02-18T00:26:35.247Z,102088.66
2023-02-18T00:29:03.833Z,102087.66
2023-02-18T00:31:34.115Z,102076.19
2023-02-18T00:34:02.046Z,102085.00
2023-02-18T00:36:30.976Z,102078.84
2023-02-18T00:39:00.950Z,102073.66
2023-02-18T00:41:29.169Z,102068.34
2023-02-18T00:43:56.488Z,102067.34
2023-02-18T00:46:25.168Z,102067.50
2023-02-18T00:48:52.577Z,102055.03
2023-02-18T00:51:19.840Z,102057.69
2023-02-18T00:53:51.948Z,102049.56
2023-02-18T00:56:19.011Z,102044.25
2023-02-18T00:58:46.100Z,102042.44
2023-02-18T01:01:14.322Z,102039.75
2023-02-18T01:03:42.702Z,102047.56
2023-02-18T01:06:10.911Z,102047.56
2023-02-18T01:08:39.652Z,102054.72
2023-02-18T01:11:09.832Z,102048.56
2023-02-18T01:13:37.442Z,102038.94
2023-02-18T01:16:05.045Z,102038.94
2023-02-18T01:18:32.927Z,102036.41
2023-02-18T01:21:00.002Z,102046.06
2023-02-18T01:23:27.007Z,102041.59
2023-02-18T01:25:54.422Z,102038.75
2023-02-18T01:28:25.307Z,102029.78
2023-02-18T01:30:53.152Z,102023.63
2023-02-18T01:33:20.944Z,102036.63
2023-02-18T01:35:48.377Z,102039.97
2023-02-18T01:38:16.363Z,102031.78
2023-02-18T01:40:49.305Z,102022.97
2023-02-18T01:43:21.173Z,102025.47
2023-02-18T01:46:33.508Z,102023.66
2023-02-18T01:49:01.737Z,102017.50
2023-02-18T01:51:32.416Z,102018.50
2023-02-18T01:54:04.948Z,102006.84
2023-02-18T01:56:35.725Z,102007.84
2023-02-18T01:59:07.831Z,102010.50
2023-02-18T02:01:40.741Z,102007.84
2023-02-18T02:04:08.153Z,102011.34
2023-02-18T02:06:35.177Z,102001.53
2023-02-18T02:09:06.906Z,101998.03
2023-02-18T02:11:41.766Z,101983.06
2023-02-18T02:14:19.991Z,101978.06
2023-02-18T02:16:57.934Z,101978.91
2023-02-18T02:19:57.119Z,101971.91
2023-02-18T02:23:09.499Z,101972.59
2023-02-18T02:26:08.705Z,101962.94
2023-02-18T02:29:10.984Z,101954.13
2023-02-18T02:32:09.585Z,101945.31
2023-02-18T02:34:55.358Z,101937.16
2023-02-18T02:37:29.304Z,101929.34
2023-02-18T02:40:07.027Z,101926.38
2023-02-18T02:42:40.872Z,101923.88
2023-02-18T02:45:15.967Z,101921.19
2023-02-18T02:47:49.714Z,101918.53
2023-02-18T02:50:25.433Z,101908.53
2023-02-18T02:52:57.349Z,101896.75
2023-02-18T02:55:24.396Z,101891.44
2023-02-18T02:57:54.431Z,101878.13
2023-02-18T03:00:27.415Z,101877.13
2023-02-18T03:03:29.612Z,101872.66
2023-02-18T03:06:21.944Z,101859.19
2023-02-18T03:09:03.474Z,101853.03
2023-02-18T03:11:41.670Z,101857.16
2023-02-18T03:14:18.606Z,101848.19
2023-02-18T03:16:49.334Z,101848.03
2023-02-18T03:19:23.385Z,101836.56
2023-02-18T03:21:57.509Z,101834.56
2023-02-18T03:24:30.694Z,101827.41
2023-02-18T03:27:02.704Z,101824.59
2023-02-18T03:29:31.036Z,101812.78
2023-02-18T03:32:03.305Z,101814.28
2023-02-18T03:34:32.732Z,101816.94
2023-02-18T03:37:02.458Z,101822.94
2023-02-18T03:39:32.922Z,101809.63
2023-02-18T03:42:00.605Z,101811.28
2023-02-18T03:44:27.606Z,101811.13
2023-02-18T03:46:54.728Z,101801.31
2023-02-18T03:49:21.653Z,101794.16
2023-02-18T03:51:48.936Z,101793.31
2023-02-18T03:54:17.185Z,101792.31
2023-02-18T03:56:44.245Z,101774.38
2023-02-18T03:59:14.013Z,101773.69
2023-02-18T04:01:41.125Z,101766.53
2023-02-18T04:04:08.533Z,101765.53
2023-02-18T04:06:35.820Z,101753.06
2023-02-18T04:09:08.756Z,101756.56
2023-02-18T04:11:38.644Z,101750.41
2023-02-18T04:14:05.748Z,101742.22
2023-02-18T04:16:32.884Z,101738.56
2023-02-18T04:19:00.555Z,101736.91
2023-02-18T04:21:27.454Z,101731.75
2023-02-18T04:23:54.391Z,101732.59
2023-02-18T04:26:21.521Z,101743.25
2023-02-18T04:28:49.976Z,101732.59
2023-02-18T04:31:17.424Z,101728.28
2023-02-18T04:33:44.514Z,101739.56
2023-02-18T04:36:11.554Z,101738.75
2023-02-18T04:38:38.476Z,101732.41
2023-02-18T04:41:05.394Z,101727.91
2023-02-18T04:43:32.472Z,101727.91
2023-02-18T04:46:00.884Z,101730.56
2023-02-18T04:48:27.846Z,101726.91
2023-02-18T04:50:54.682Z,101715.44
2023-02-18T04:53:21.571Z,101716.28
2023-02-18T04:55:50.652Z,101715.44
2023-02-18T04:58:17.499Z,101708.44
2023-02-18T05:00:44.465Z,101706.63
2023-02-18T05:03:12.956Z,101709.28
2023-02-18T05:05:41.882Z,101691.63
2023-02-18T05:08:09.252Z,101686.50
2023-02-18T05:10:37.858Z,101683.84
2023-02-18T05:13:05.118Z,101681.19
2023-02-18T05:15:31.956Z,101667.88
2023-02-18T05:17:58.876Z,101668.88
2023-02-18T05:20:27.771Z,101661.88
2023-02-18T05:22:54.637Z,101666.22
2023-02-18T05:25:21.645Z,101661.88
2023-02-18T05:27:48.602Z,101660.06
2023-02-18T05:30:15.580Z,101669.88
2023-02-18T05:32:42.480Z,101666.88
2023-02-18T05:35:09.503Z,101669.34
2023-02-18T05:37:37.938Z,101664.03
2023-02-18T05:40:07.305Z,101659.53
2023-02-18T05:42:34.206Z,101668.72
2023-02-18T05:45:01.054Z,101652.72
2023-02-18T05:47:28.121Z,101658.88
2023-02-18T05:49:56.090Z,101650.06
2023-02-18T05:52:23.331Z,101652.53
2023-02-18T05:54:51.583Z,101656.22
2023-02-18T05:57:18.702Z,101653.56
2023-02-18T05:59:45.787Z,101653.72
2023-02-18T06:02:12.746Z,101644.75
2023-02-18T06:04:40.651Z,101646.56
2023-02-18T06:07:08.303Z,101637.09
2023-02-18T06:09:35.144Z,101646.06
2023-02-18T06:12:06.648Z,101644.25
2023-02-18T06:14:33.724Z,101651.56
2023-02-18T06:17:01.068Z,101642.94
2023-02-18T06:19:27.967Z,101637.59
2023-02-18T06:21:56.330Z,101629.78
2023-02-18T06:24:23.452Z,101639.44
2023-02-18T06:26:50.318Z,101639.44
2023-02-18T06:29:18.588Z,101648.25
2023-02-18T06:31:45.793Z,101642.09
2023-02-18T06:34:12.706Z,101643.94
2023-02-18T06:36:40.501Z,101637.78
2023-02-18T06:39:08.433Z,101644.91
2023-02-18T06:41:35.541Z,101648.25
2023-02-18T06:44:02.446Z,101645.59
2023-02-18T06:46:31.326Z,101641.25
2023-02-18T06:48:58.584Z,101643.75
2023-02-18T06:51:26.827Z,101660.56
2023-02-18T06:53:53.679Z,101653.75
2023-02-18T06:56:20.614Z,101648.56
2023-02-18T06:58:47.425Z,101650.41
2023-02-18T07:01:14.518Z,101657.56
2023-02-18T07:03:43.020Z,101654.06
2023-02-18T07:06:10.356Z,101660.38
2023-02-18T07:08:37.768Z,101653.75
2023-02-18T07:11:05.046Z,101653.75
2023-02-18T07:13:35.155Z,101649.25
2023-02-18T07:16:02.465Z,101654.59
2023-02-18T07:18:29.441Z,101643.09
2023-02-18T07:20:57.846Z,101643.09
2023-02-18T07:23:24.775Z,101641.28
2023-02-18T07:25:51.821Z,101644.78
2023-02-18T07:28:20.436Z,101650.25
2023-02-18T07:30:47.387Z,101647.59
2023-02-18T07:33:14.639Z,101659.22
2023-02-18T07:35:41.540Z,101656.94
2023-02-18T07:38:10.545Z,101654.28
2023-02-18T07:40:38.638Z,101651.59
2023-02-18T07:43:05.906Z,101651.59
2023-02-18T07:45:33.045Z,101652.59
2023-02-18T07:48:06.930Z,101652.59
2023-02-18T07:50:36.997Z,101653.44
2023-02-18T07:53:05.812Z,101662.56
2023-02-18T07:55:50.876Z,101653.91
2023-02-18T07:58:20.623Z,101652.94
2023-02-18T08:00:49.604Z,101651.44
2023-02-18T08:03:21.644Z,101659.59
2023-02-18T08:05:50.406Z,101653.44
2023-02-18T08:08:20.754Z,101651.09
2023-02-18T08:10:50.557Z,101640.66
2023-02-18T08:13:20.268Z,101660.06
2023-02-18T08:15:55.548Z,101661.75
2023-02-18T08:18:29.310Z,101656.63
2023-02-18T08:20:56.172Z,101665.41
2023-02-18T08:23:25.592Z,101659.09
2023-02-18T08:26:01.687Z,101653.75
2023-02-18T08:28:30.427Z,101675.72
2023-02-18T08:30:59.285Z,101656.09
2023-02-18T08:33:27.226Z,101668.56
2023-02-18T08:36:14.966Z,101663.41
2023-02-18T08:38:43.349Z,101674.88
2023-02-18T08:41:15.596Z,101664.41
2023-02-18T08:43:43.377Z,101669.91
2023-02-18T08:46:15.851Z,101673.38
2023-02-18T08:48:43.386Z,101674.22
2023-02-18T08:51:16.178Z,101672.56
2023-02-18T08:53:49.944Z,101663.09
2023-02-18T08:56:19.425Z,101679.06
2023-02-18T08:58:51.050Z,101674.88
2023-02-18T09:04:12.211Z,101677.72
2023-02-18T09:06:39.498Z,101688.34
2023-02-18T09:09:36.562Z,101679.72
2023-02-18T09:12:06.188Z,101680.88
2023-02-18T09:14:39.563Z,101683.06
2023-02-18T09:17:10.568Z,101673.56
2023-02-18T09:19:37.656Z,101672.72
2023-02-18T09:22:07.612Z,101675.38
2023-02-18T09:24:46.969Z,101681.84
2023-02-18T09:27:15.647Z,101684.88
2023-02-18T09:29:45.558Z,101681.38
2023-02-18T09:32:34.304Z,101680.69
2023-02-18T09:35:42.314Z,101679.03
2023-02-18T09:38:12.413Z,101682.69
2023-02-18T09:40:43.685Z,101674.91
2023-02-18T09:43:55.855Z,101681.22
2023-02-18T09:46:38.796Z,101681.53
2023-02-18T09:49:19.141Z,101674.88
2023-02-18T09:51:47.846Z,101681.19
2023-02-18T09:54:33.892Z,101683.03
2023-02-18T09:57:21.136Z,101684.69
2023-02-18T10:00:09.131Z,101675.03
2023-02-18T10:03:38.704Z,101687.50
2023-02-18T10:06:21.107Z,101678.00
2023-02-18T10:08:51.938Z,101700.97
2023-02-18T10:11:29.121Z,101705.44
2023-02-18T10:13:57.584Z,101696.47
2023-02-18T10:16:25.208Z,101713.25
2023-02-18T10:18:56.110Z,101716.91
2023-02-18T10:21:26.067Z,101713.41
2023-02-18T10:24:00.709Z,101706.28
2023-02-18T10:26:30.488Z,101720.25
2023-02-18T10:28:57.454Z,101714.25
2023-02-18T10:31:29.893Z,101725.72
2023-02-18T10:34:04.336Z,101724.88
2023-02-18T10:36:39.218Z,101717.75
2023-02-18T10:39:32.920Z,101716.06
2023-02-18T10:42:10.641Z,101726.72
2023-02-18T10:44:50.147Z,101722.22
2023-02-18T10:47:22.869Z,101723.91
2023-02-18T10:49:58.161Z,101726.25
2023-02-18T10:52:29.806Z,101728.91
2023-02-18T10:55:01.544Z,101726.88
2023-02-18T10:57:28.134Z,101728.75
2023-02-18T11:00:00.603Z,101731.56
2023-02-18T11:02:31.570Z,101738.84
2023-02-18T11:05:06.506Z,101731.56
2023-02-18T11:07:37.744Z,101728.06
2023-02-18T11:10:17.156Z,101732.41
2023-02-18T11:12:47.545Z,101723.44
2023-02-18T11:15:20.841Z,101736.53
2023-02-18T11:17:49.915Z,101735.38
2023-02-18T11:20:24.949Z,101734.41
2023-02-18T11:22:52.224Z,101729.75
2023-02-18T11:25:22.971Z,101741.72
2023-02-18T11:27:53.407Z,101733.75
2023-02-18T11:30:24.470Z,101724.75
2023-02-18T11:32:56.213Z,101732.41
2023-02-18T11:35:25.004Z,101727.91
2023-02-18T11:37:52.682Z,101732.41
2023-02-18T11:40:28.515Z,101720.75
2023-02-18T11:43:04.095Z,101718.78
2023-02-18T11:45:33.839Z,101713.31
2023-02-18T11:48:02.428Z,101725.44
2023-02-18T11:50:33.167Z,101713.63
2023-02-18T11:53:00.519Z,101719.63
2023-02-18T11:55:31.179Z,101715.78
2023-02-18T11:58:00.232Z,101714.78
2023-02-18T12:00:38.530Z,101716.31
2023-02-18T12:03:20.877Z,101716.97
2023-02-18T12:05:48.311Z,101703.47
2023-02-18T12:08:21.801Z,101718.44
2023-02-18T12:10:53.566Z,101704.16
2023-02-18T12:13:25.976Z,101707.50
2023-02-18T12:16:10.403Z,101713.50
2023-02-18T12:18:49.720Z,101718.63
2023-02-18T12:21:30.368Z,101711.31
2023-02-18T12:24:09.210Z,101717.47
2023-02-18T12:26:51.245Z,101719.97
2023-02-18T12:29:33.682Z,101718.78
2023-02-18T12:32:15.280Z,101713.47
2023-02-18T12:34:58.935Z,101716.13
2023-02-18T12:37:42.657Z,101716.78
2023-02-18T12:40:30.534Z,101713.13
2023-02-18T12:43:09.424Z,101709.47
2023-02-18T12:45:50.853Z,101710.16
2023-02-18T12:48:38.551Z,101709.13
2023-02-18T12:51:17.624Z,101706.47
2023-02-18T12:54:02.263Z,101712.47
2023-02-18T12:56:47.452Z,101717.63
2023-02-18T12:59:34.021Z,101714.13
2023-02-18T13:02:14.355Z,101721.13
2023-02-18T13:04:52.818Z,101712.13
2023-02-18T13:07:47.426Z,101714.44
2023-02-18T13:10:34.851Z,101717.94
2023-02-18T13:13:09.922Z,101726.75
2023-02-18T13:15:41.887Z,101724.09
2023-02-18T13:18:15.502Z,101728.75
2023-02-18T13:20:45.456Z,101736.75
2023-02-18T13:23:18.742Z,101718.78
2023-02-18T13:25:47.749Z,101731.75
2023-02-18T13:28:23.711Z,101731.56
2023-02-18T13:31:05.471Z,101721.59
2023-02-18T13:33:42.497Z,101724.78
2023-02-18T13:36:16.969Z,101714.75
2023-02-18T13:39:02.980Z,101716.44
2023-02-18T13:41:34.713Z,101712.94
2023-02-18T13:44:01.277Z,101712.78
2023-02-18T13:46:29.698Z,101713.59
2023-02-18T13:49:07.216Z,101720.75
2023-02-18T13:51:40.656Z,101712.78
2023-02-18T13:54:21.085Z,101722.25
2023-02-18T13:56:54.479Z,101718.75
2023-02-18T13:59:26.114Z,101724.09
2023-02-18T14:01:54.663Z,101723.94
2023-02-18T14:04:52.980Z,101710.41
2023-02-18T14:07:44.942Z,101712.09
2023-02-18T14:10:31.586Z,101716.41
2023-02-18T14:13:20.205Z,101713.75
2023-02-18T14:15:52.560Z,101714.59
2023-02-18T14:19:00.893Z,101716.09
2023-02-18T14:21:39.091Z,101721.41
2023-02-18T14:24:09.459Z,101729.41
2023-02-18T14:26:39.609Z,101726.53
2023-02-18T14:29:12.796Z,101729.03
2023-02-18T14:31:47.690Z,101727.22
2023-02-18T14:34:51.974Z,101738.72
2023-02-18T14:37:46.293Z,101730.72
2023-02-18T14:40:25.390Z,101737.72
2023-02-18T14:43:01.585Z,101730.72
2023-02-18T14:45:40.401Z,101724.56
2023-02-18T14:48:41.679Z,101725.22
2023-02-18T14:51:09.570Z,101720.72
2023-02-18T14:53:43.363Z,101729.56
2023-02-18T14:56:14.377Z,101737.53
2023-02-18T14:58:45.059Z,101728.56
2023-02-18T15:01:21.277Z,101746.38
2023-02-18T15:03:49.167Z,101743.72
2023-02-18T15:06:24.243Z,101728.38
2023-02-18T15:08:52.656Z,101748.72
2023-02-18T15:11:22.850Z,101740.41
2023-02-18T15:13:50.485Z,101741.38
2023-02-18T15:16:20.602Z,101752.03
2023-02-18T15:18:51.970Z,101748.53
2023-02-18T15:21:22.212Z,101744.88
2023-02-18T15:23:49.550Z,101755.53
2023-02-18T15:26:18.150Z,101749.38
2023-02-18T15:28:55.578Z,101747.38
2023-02-18T15:31:26.431Z,101753.53
2023-02-18T15:33:53.357Z,101753.53
2023-02-18T15:36:20.326Z,101748.84
2023-02-18T15:38:47.365Z,101747.03
2023-02-18T15:41:16.127Z,101740.88
2023-02-18T15:43:55.079Z,101749.69
2023-02-18T15:46:33.101Z,101748.53
2023-02-18T15:49:01.103Z,101748.38
2023-02-18T15:51:30.642Z,101751.19
2023-02-18T15:54:00.654Z,101742.38
2023-02-18T15:56:31.500Z,101749.38
2023-02-18T15:59:18.024Z,101751.03
2023-02-18T16:01:49.149Z,101747.53
2023-02-18T16:04:16.200Z,101748.38
2023-02-18T16:06:47.028Z,101745.72
2023-02-18T16:09:18.968Z,101749.19
2023-02-18T16:11:48.699Z,101741.22
2023-02-18T16:14:28.470Z,101744.03
2023-02-18T16:17:12.585Z,101744.03
2023-02-18T16:20:03.966Z,101748.38
2023-02-18T16:22:36.813Z,101748.53
2023-02-18T16:25:14.786Z,101750.19
2023-02-18T16:27:48.911Z,101759.34
2023-02-18T16:30:19.721Z,101758.69
2023-02-18T16:32:46.795Z,101764.84
2023-02-18T16:35:14.208Z,101772.00
2023-02-18T16:37:42.977Z,101761.19
2023-02-18T16:40:28.542Z,101756.84
2023-02-18T16:42:57.315Z,101755.38
2023-02-18T16:45:33.182Z,101757.38
2023-02-18T16:48:00.326Z,101763.69
2023-02-18T16:50:28.594Z,101762.03
2023-02-18T16:52:55.361Z,101759.38
2023-02-18T16:55:24.174Z,101764.81
2023-02-18T16:57:51.103Z,101772.81
2023-02-18T17:00:19.244Z,101773.50
2023-02-18T17:02:50.103Z,101773.66
2023-02-18T17:05:26.491Z,101780.66
2023-02-18T17:07:54.015Z,101773.66
2023-02-18T17:10:20.905Z,101772.00
2023-02-18T17:12:47.657Z,101772.00
2023-02-18T17:15:25.073Z,101768.31
2023-02-18T17:17:53.550Z,101761.16
2023-02-18T17:20:20.955Z,101768.31
2023-02-18T17:22:47.803Z,101778.00
2023-02-18T17:25:20.447Z,101776.66
2023-02-18T17:27:48.144Z,101776.66
2023-02-18T17:30:15.182Z,101778.97
2023-02-18T17:32:45.491Z,101780.66
2023-02-18T17:35:18.629Z,101778.00
2023-02-18T17:37:46.109Z,101779.81
2023-02-18T17:40:16.943Z,101783.19
2023-02-18T17:42:43.897Z,101773.50
2023-02-18T17:45:19.757Z,101779.81
2023-02-18T17:47:50.633Z,101765.84
2023-02-18T17:50:19.480Z,101768.31
2023-02-18T17:52:46.542Z,101766.50
2023-02-18T17:55:22.245Z,101768.31
2023-02-18T17:57:57.532Z,101768.31
2023-02-18T18:00:27.125Z,101768.31
2023-02-18T18:02:54.218Z,101767.34
2023-02-18T18:05:24.661Z,101768.19
2023-02-18T18:07:51.868Z,101761.88
2023-02-18T18:10:20.262Z,101777.00
2023-02-18T18:12:47.132Z,101780.66
2023-02-18T18:15:22.878Z,101781.00
2023-02-18T18:17:51.006Z,101782.47
2023-02-18T18:20:18.685Z,101772.00
2023-02-18T18:22:50.883Z,101768.66
2023-02-18T18:25:20.532Z,101773.00
2023-02-18T18:27:47.478Z,101774.00
2023-02-18T18:30:14.637Z,101774.66
2023-02-18T18:32:41.648Z,101781.63
2023-02-18T18:35:20.320Z,101773.66
2023-02-18T18:37:47.221Z,101770.84
2023-02-18T18:40:22.726Z,101778.97
2023-02-18T18:42:52.051Z,101773.66
2023-02-18T18:45:22.715Z,101768.66
2023-02-18T18:47:53.178Z,101771.50
2023-02-18T18:50:24.440Z,101775.16
2023-02-18T18:52:53.089Z,101776.34
2023-02-18T18:55:26.382Z,101780.84
2023-02-18T18:57:54.699Z,101777.16
2023-02-18T19:00:27.329Z,101781.66
2023-02-18T19:02:57.328Z,101780.00
2023-02-18T19:05:28.057Z,101773.84
2023-02-18T19:07:56.677Z,101768.34
2023-02-18T19:10:27.450Z,101766.50
2023-02-18T19:12:58.065Z,101765.84
2023-02-18T19:15:25.009Z,101774.69
2023-02-18T19:17:53.946Z,101760.69
2023-02-18T19:20:23.698Z,101772.19
2023-02-18T19:22:50.809Z,101765.19
2023-02-18T19:25:18.781Z,101763.34
2023-02-18T19:27:48.554Z,101760.53
2023-02-18T19:30:18.048Z,101758.69
2023-02-18T19:32:45.132Z,101762.19
2023-02-18T19:35:12.643Z,101761.38
2023-02-18T19:37:40.570Z,101760.69
2023-02-18T19:40:09.774Z,101755.38
2023-02-18T19:42:40.016Z,101748.38
2023-02-18T19:45:09.427Z,101743.03
2023-02-18T19:47:36.761Z,101753.38
2023-02-18T19:50:05.712Z,101751.53
2023-02-18T19:52:33.017Z,101750.72
2023-02-18T19:54:59.922Z,101741.72
2023-02-18T19:57:26.781Z,101739.69
2023-02-18T19:59:53.569Z,101739.69
2023-02-18T20:02:26.682Z,101732.72
2023-02-18T20:04:54.980Z,101734.38
2023-02-18T20:07:23.133Z,101732.72
2023-02-18T20:09:51.702Z,101727.38
2023-02-18T20:12:18.742Z,101719.41
2023-02-18T20:14:45.986Z,101719.41
2023-02-18T20:17:13.117Z,101712.25
2023-02-18T20:19:41.341Z,101700.75
2023-02-18T20:22:10.258Z,101705.09
2023-02-18T20:24:39.880Z,101707.75
2023-02-18T20:27:09.430Z,101700.44
2023-02-18T20:29:37.937Z,101698.59
2023-02-18T20:32:05.895Z,101698.59
2023-02-18T20:34:33.081Z,101694.09
2023-02-18T20:37:05.262Z,101689.59
2023-02-18T20:39:31.968Z,101687.94
2023-02-18T20:42:02.885Z,101684.28
2023-02-18T20:44:32.477Z,101694.94
2023-02-18T20:46:59.292Z,101688.94
2023-02-18T20:49:25.993Z,101693.44
2023-02-18T20:51:59.879Z,101685.44
2023-02-18T20:54:29.349Z,101679.13
2023-02-18T20:56:56.181Z,101665.97
2023-02-18T20:59:22.914Z,101660.81
2023-02-18T21:01:50.230Z,101676.78
2023-02-18T21:04:19.288Z,101671.47
2023-02-18T21:06:46.877Z,101681.94
2023-02-18T21:09:14.228Z,101681.28
2023-02-18T21:11:43.021Z,101677.81
2023-02-18T21:14:10.595Z,101674.94
2023-02-18T21:16:40.465Z,101680.47
2023-02-18T21:19:09.018Z,101682.47
2023-02-18T21:21:35.860Z,101686.97
2023-02-18T21:24:03.219Z,101690.63
2023-02-18T21:26:30.131Z,101689.78
2023-02-18T21:28:59.739Z,101675.81
2023-02-18T21:31:29.687Z,101676.00
2023-02-18T21:33:56.970Z,101670.84
2023-02-18T21:36:24.377Z,101667.34
2023-02-18T21:38:52.863Z,101659.34
2023-02-18T21:41:20.322Z,101661.00
2023-02-18T21:43:48.134Z,101655.53
2023-02-18T21:46:18.820Z,101657.53
2023-02-18T21:49:04.354Z,101651.38
2023-02-18T21:51:56.927Z,101639.72
2023-02-18T21:54:26.035Z,101638.22
2023-02-18T21:56:57.374Z,101635.56
2023-02-18T21:59:33.361Z,101617.91
2023-02-18T22:02:03.244Z,101611.75
2023-02-18T22:04:31.930Z,101622.41
2023-02-18T22:06:58.972Z,101624.06
2023-02-18T22:09:26.427Z,101624.91
2023-02-18T22:11:54.122Z,101608.44
2023-02-18T22:14:21.716Z,101613.94
2023-02-18T22:16:48.689Z,101621.25
2023-02-18T22:19:16.888Z,101625.75
2023-02-18T22:21:43.978Z,101630.25
2023-02-18T22:24:13.168Z,101624.75
2023-02-18T22:26:48.086Z,101634.56
2023-02-18T22:29:19.049Z,101630.41
2023-02-18T22:31:47.270Z,101634.75
2023-02-18T22:34:14.073Z,101640.25
2023-02-18T22:36:42.809Z,101634.09
2023-02-18T22:39:11.359Z,101643.09
2023-02-18T22:41:39.773Z,101628.28
2023-02-18T22:44:16.159Z,101628.28
2023-02-18T22:46:43.766Z,101636.25
2023-02-18T22:49:11.769Z,101637.25
2023-02-18T22:51:40.699Z,101632.75
2023-02-18T22:54:14.829Z,101630.09
2023-02-18T22:56:43.376Z,101626.59
2023-02-18T22:59:11.153Z,101629.63
2023-02-18T23:01:40.249Z,101618.31
2023-02-18T23:04:09.980Z,101625.63
2023-02-18T23:06:39.144Z,101630.94
2023-02-18T23:09:12.570Z,101627.44
2023-02-18T23:11:39.628Z,101625.63
2023-02-18T23:14:18.705Z,101623.13
2023-02-18T23:17:05.343Z,101623.13
2023-02-18T23:19:34.017Z,101626.81
2023-02-18T23:22:01.036Z,101623.97
2023-02-18T23:24:31.198Z,101626.63
2023-02-18T23:26:59.604Z,101622.31
2023-02-18T23:29:26.654Z,101617.81
2023-02-18T23:31:53.960Z,101624.16
2023-02-18T23:34:21.132Z,101627.66
2023-02-18T23:36:49.177Z,101626.81
2023-02-18T23:39:18.642Z,101621.66
2023-02-18T23:41:47.152Z,101621.81
2023-02-18T23:44:15.937Z,101627.97
2023-02-18T23:46:44.771Z,101625.47
2023-02-18T23:49:14.889Z,101611.34
2023-02-18T23:51:42.447Z,101613.16
2023-02-18T23:54:12.595Z,101605.38
2023-02-18T23:56:40.234Z,101609.84
2023-02-18T23:59:08.360Z,101612.69
